Airfield :
LOGIN :

Register | Disclaimer

   EN    FR    IT 

 










Legend :    VFR   Marginal VFR   IFR   Intensive IFR   Very Intensive IFR
Visi :
Ceiling :
>= 8 km
>= 3000ft
5 to 8 km
1000 to 3000 ft
1500m to 5 km
500 to 1000 ft
800 to 1500m
200 to 500 ft
< 800m
< 200 ft
Symbols :   Thunderstorms  Fog  Heavy snow  Heavy precipitations  Wind > 20 kt
SIGMETs :     Misc.  Thunderstorms  Icing  Turbulence  Mountain Waves  Volcanic Ashes






- Airport Elevation : 622 ft
- IATA code : BRS


EGGD - Bristol Int.

CURRENT METAR :
  • 181850Z AUTO 22011KT 9999 SCT024/// //////TCU 11/08 Q0997

EXPIRED METARs :
  • 181820Z AUTO 21012KT 9999 SCT023/// //////TCU 11/08 Q0997
  • 181750Z AUTO 21012KT 9999 BKN030/// //////TCU 11/08 Q0997
  • 181720Z AUTO 21015KT 9999 FEW022 SCT028 11/07 Q0997
  • 181650Z AUTO 21014KT 9999 FEW026/// SCT036/// //////CB 11/07 Q0997
  • 181620Z AUTO 21016G26KT 9999 FEW028 SCT033 12/07 Q0997
  • 181550Z AUTO 21014KT 9999 BKN030 BKN042 12/07 Q0997

TAF TAF EGGD
Valid from the 18 at 18:00 until the 19 at 18:00 UTC


181656Z 1818/1918 20015KT 9999 FEW012 SCT035
TEMPO 1818/1823 21020G30KT
TEMPO 1818/1821 3000 +SHRA BKN012 BKN020CB
TEMPO 1821/1909 7000 SHRA
PROB30
TEMPO 1821/1903 3000 +SHRA BKN010 BKN015CB
BECMG 1900/1903 19005KT
PROB30
TEMPO 1903/1909 BKN006
PROB40
TEMPO 1909/1918 7000 SHRA
BECMG 1912/1915 25010KT
ATIS : +44 1275 473 666



MET'MAP, your aeronautical weather chart ! - Copyright ORBIFLY December 2007 - Disclaimer

ORBIFLY MET'MAP TEAM :

Programming & Development : Alexandra Zaïnal
Concept & Development : Baudouin d'Aumeries
Co-Development & Prog : Marc-Olivier Méhu
Technical & hardware support : Manuel Goepfert

Contact : metmap@orbifly.com




SOURCES & CREDITS :

   NOAA